createdAt,value
2022-10-22T00:02:21.551Z,97396.69
2022-10-22T00:04:49.690Z,97393.94
2022-10-22T00:07:18.123Z,97395.03
2022-10-22T00:09:45.263Z,97395.88
2022-10-22T00:12:12.579Z,97395.34
2022-10-22T00:14:39.774Z,97386.44
2022-10-22T00:17:10.567Z,97375.50
2022-10-22T00:19:38.363Z,97379.28
2022-10-22T00:22:07.856Z,97389.81
2022-10-22T00:24:35.322Z,97405.72
2022-10-22T00:27:02.498Z,97402.97
2022-10-22T00:29:29.427Z,97397.59
2022-10-22T00:34:28.279Z,97407.00
2022-10-22T00:36:54.949Z,97398.78
2022-10-22T00:39:23.986Z,97399.66
2022-10-22T00:41:52.775Z,97400.63
2022-10-22T00:44:56.974Z,97394.19
2022-10-22T00:47:25.394Z,97400.94
2022-10-22T00:49:53.757Z,97392.94
2022-10-22T00:52:21.662Z,97384.41
2022-10-22T00:54:48.793Z,97380.97
2022-10-22T00:57:17.119Z,97373.31
2022-10-22T00:59:43.866Z,97368.75
2022-10-22T01:02:10.505Z,97374.94
2022-10-22T01:04:37.331Z,97360.38
2022-10-22T01:07:04.398Z,97361.69
2022-10-22T01:09:44.602Z,97350.94
2022-10-22T01:12:34.725Z,97348.25
2022-10-22T01:15:33.580Z,97350.34
2022-10-22T01:18:08.111Z,97360.47
2022-10-22T01:21:33.206Z,97370.28
2022-10-22T01:24:55.211Z,97368.59
2022-10-22T01:27:40.056Z,97367.13
2022-10-22T01:30:09.569Z,97346.41
2022-10-22T01:32:41.599Z,97335.88
2022-10-22T01:35:11.205Z,97321.03
2022-10-22T01:37:46.476Z,97322.72
2022-10-22T01:40:15.942Z,97324.00
2022-10-22T01:42:42.931Z,97310.97
2022-10-22T01:45:13.598Z,97304.16
2022-10-22T01:48:09.590Z,97315.47
2022-10-22T01:51:27.195Z,97314.91
2022-10-22T01:57:29.838Z,97318.41
2022-10-22T02:00:07.759Z,97320.75
2022-10-22T02:03:08.870Z,97338.03
2022-10-22T02:05:44.435Z,97343.66
2022-10-22T02:08:24.316Z,97350.56
2022-10-22T02:10:52.665Z,97334.31
2022-10-22T02:13:27.773Z,97332.66
2022-10-22T02:15:57.026Z,97332.09
2022-10-22T02:18:28.089Z,97325.53
2022-10-22T02:20:55.158Z,97328.56
2022-10-22T02:23:22.151Z,97334.53
2022-10-22T02:26:00.210Z,97325.28
2022-10-22T02:28:37.639Z,97325.28
2022-10-22T02:31:15.949Z,97309.16
2022-10-22T02:33:48.195Z,97277.81
2022-10-22T02:36:16.542Z,97276.22
2022-10-22T02:38:43.510Z,97284.00
2022-10-22T02:41:10.526Z,97276.22
2022-10-22T02:43:45.547Z,97274.94
2022-10-22T02:46:12.458Z,97281.84
2022-10-22T02:48:39.044Z,97289.06
2022-10-22T02:51:06.073Z,97286.75
2022-10-22T02:53:33.225Z,97300.38
2022-10-22T02:56:00.227Z,97294.03
2022-10-22T02:58:26.803Z,97287.28
2022-10-22T03:00:53.427Z,97302.38
2022-10-22T03:03:20.066Z,97311.84
2022-10-22T03:05:46.658Z,97325.00
2022-10-22T03:08:13.335Z,97333.97
2022-10-22T03:10:39.865Z,97345.19
2022-10-22T03:13:06.432Z,97342.44
2022-10-22T03:15:33.238Z,97346.06
2022-10-22T03:17:59.827Z,97355.13
2022-10-22T03:20:26.903Z,97363.66
2022-10-22T03:22:53.629Z,97358.19
2022-10-22T03:25:24.008Z,97355.13
2022-10-22T03:27:52.434Z,97358.25
2022-10-22T03:30:20.432Z,97379.28
2022-10-22T03:32:47.153Z,97390.88
2022-10-22T03:35:13.749Z,97379.16
2022-10-22T03:37:40.928Z,97384.47
2022-10-22T03:40:09.033Z,97375.63
2022-10-22T03:42:35.612Z,97383.69
2022-10-22T03:45:02.403Z,97410.91
2022-10-22T03:47:28.980Z,97420.72
2022-10-22T03:49:55.571Z,97422.75
2022-10-22T03:52:22.343Z,97414.88
2022-10-22T03:54:48.919Z,97417.03
2022-10-22T03:57:16.038Z,97417.75
2022-10-22T03:59:45.094Z,97431.78
2022-10-22T04:02:13.039Z,97432.97
2022-10-22T04:04:40.166Z,97440.06
2022-10-22T04:07:07.575Z,97431.13
2022-10-22T04:09:34.665Z,97427.19
2022-10-22T04:12:01.349Z,97430.31
2022-10-22T04:14:28.074Z,97452.13
2022-10-22T04:16:55.116Z,97471.66
2022-10-22T04:19:21.722Z,97479.13
2022-10-22T04:21:48.515Z,97476.34
2022-10-22T04:24:15.452Z,97479.25
2022-10-22T04:26:42.389Z,97476.69
2022-10-22T04:29:13.397Z,97480.72
2022-10-22T04:31:42.610Z,97492.19
2022-10-22T04:34:09.374Z,97495.63
2022-10-22T04:36:36.000Z,97508.56
2022-10-22T04:39:05.243Z,97521.25
2022-10-22T04:41:35.236Z,97517.25
2022-10-22T04:44:02.547Z,97519.44
2022-10-22T04:46:33.273Z,97512.50
2022-10-22T04:48:59.979Z,97521.59
2022-10-22T04:51:27.881Z,97541.94
2022-10-22T04:53:54.869Z,97531.19
2022-10-22T04:56:24.950Z,97540.66
2022-10-22T04:58:57.327Z,97541.75
2022-10-22T05:01:26.441Z,97536.81
2022-10-22T05:03:55.547Z,97522.06
2022-10-22T05:06:23.358Z,97536.03
2022-10-22T05:08:55.577Z,97546.75
2022-10-22T05:11:26.124Z,97550.75
2022-10-22T05:13:52.972Z,97541.31
2022-10-22T05:16:19.539Z,97542.75
2022-10-22T05:18:46.342Z,97545.63
2022-10-22T05:21:16.282Z,97552.56
2022-10-22T05:23:44.984Z,97550.69
2022-10-22T05:26:13.311Z,97556.16
2022-10-22T05:28:40.458Z,97565.44
2022-10-22T05:31:09.119Z,97563.81
2022-10-22T05:33:35.697Z,97561.97
2022-10-22T05:36:04.425Z,97554.13
2022-10-22T05:38:32.467Z,97557.34
2022-10-22T05:41:08.268Z,97560.41
2022-10-22T05:43:35.820Z,97572.41
2022-10-22T05:46:05.510Z,97568.00
2022-10-22T05:51:06.039Z,97578.72
2022-10-22T05:53:34.471Z,97572.28
2022-10-22T05:56:07.201Z,97574.81
2022-10-22T05:58:34.151Z,97566.75
2022-10-22T06:01:06.260Z,97578.97
2022-10-22T06:03:33.250Z,97586.28
2022-10-22T06:06:02.975Z,97599.88
2022-10-22T06:08:30.612Z,97599.34
2022-10-22T06:10:57.781Z,97596.56
2022-10-22T06:13:24.383Z,97601.47
2022-10-22T06:15:53.521Z,97607.50
2022-10-22T06:18:20.151Z,97606.06
2022-10-22T06:20:47.684Z,97607.38
2022-10-22T06:23:15.331Z,97611.88
2022-10-22T06:25:42.672Z,97616.44
2022-10-22T06:28:09.674Z,97613.31
2022-10-22T06:30:41.804Z,97618.69
2022-10-22T06:33:11.023Z,97626.69
2022-10-22T06:35:37.635Z,97632.47
2022-10-22T06:38:04.279Z,97633.13
2022-10-22T06:40:30.825Z,97638.59
2022-10-22T06:43:01.960Z,97636.38
2022-10-22T06:45:28.962Z,97638.72
2022-10-22T06:47:55.830Z,97638.31
2022-10-22T06:50:22.467Z,97644.44
2022-10-22T06:52:49.047Z,97655.13
2022-10-22T06:55:15.824Z,97650.16
2022-10-22T06:57:43.052Z,97656.13
2022-10-22T07:00:10.613Z,97649.13
2022-10-22T07:02:37.227Z,97652.91
2022-10-22T07:05:04.036Z,97651.78
2022-10-22T07:07:30.683Z,97654.97
2022-10-22T07:09:57.498Z,97647.66
2022-10-22T07:12:24.080Z,97658.03
2022-10-22T07:14:50.743Z,97656.50
2022-10-22T07:17:17.305Z,97668.34
2022-10-22T07:19:45.303Z,97668.25
2022-10-22T07:22:13.956Z,97660.94
2022-10-22T07:24:40.494Z,97673.63
2022-10-22T07:27:09.444Z,97671.69
2022-10-22T07:29:37.613Z,97674.03
2022-10-22T07:32:04.544Z,97677.66
2022-10-22T07:34:31.384Z,97677.25
2022-10-22T07:36:58.168Z,97672.22
2022-10-22T07:39:25.883Z,97665.50
2022-10-22T07:41:53.075Z,97661.72
2022-10-22T07:44:19.717Z,97659.59
2022-10-22T07:46:48.855Z,97668.72
2022-10-22T07:49:15.688Z,97663.72
2022-10-22T07:51:42.341Z,97663.47
2022-10-22T07:54:08.982Z,97675.75
2022-10-22T07:56:35.579Z,97671.28
2022-10-22T08:01:33.855Z,97669.75
2022-10-22T08:04:00.542Z,97677.88
2022-10-22T08:06:27.182Z,97675.41
2022-10-22T08:08:53.827Z,97679.94
2022-10-22T08:11:20.667Z,97683.09
2022-10-22T08:13:47.363Z,97687.19
2022-10-22T08:16:15.194Z,97684.28
2022-10-22T08:18:42.074Z,97686.47
2022-10-22T08:21:08.748Z,97680.97
2022-10-22T08:23:35.617Z,97689.94
2022-10-22T08:26:03.096Z,97680.97
2022-10-22T08:28:31.224Z,97681.72
2022-10-22T08:30:57.869Z,97688.06
2022-10-22T08:43:54.888Z,97690.78
2022-10-22T08:46:54.366Z,97694.75
2022-10-22T08:49:26.186Z,97690.56
2022-10-22T08:51:53.361Z,97704.28
2022-10-22T08:54:59.363Z,97706.88
2022-10-22T08:58:16.157Z,97703.31
2022-10-22T09:00:47.683Z,97711.91
2022-10-22T09:03:56.207Z,97709.72
2022-10-22T09:06:25.949Z,97712.88
2022-10-22T09:08:53.884Z,97706.72
2022-10-22T09:11:32.520Z,97710.03
2022-10-22T09:14:00.602Z,97718.47
2022-10-22T09:17:02.141Z,97721.34
2022-10-22T09:19:40.019Z,97725.97
2022-10-22T09:23:17.067Z,97735.47
2022-10-22T09:25:45.450Z,97739.97
2022-10-22T09:28:12.791Z,97736.47
2022-10-22T09:30:42.535Z,97742.13
2022-10-22T09:33:31.591Z,97746.25
2022-10-22T09:36:04.567Z,97746.84
2022-10-22T09:38:39.942Z,97750.09
2022-10-22T09:41:09.590Z,97746.50
2022-10-22T09:43:36.575Z,97748.25
2022-10-22T09:46:14.370Z,97756.66
2022-10-22T09:48:43.277Z,97755.22
2022-10-22T09:51:48.177Z,97761.47
2022-10-22T09:54:26.844Z,97754.38
2022-10-22T09:57:03.182Z,97764.75
2022-10-22T09:59:32.771Z,97772.72
2022-10-22T10:02:13.725Z,97774.75
2022-10-22T10:04:52.300Z,97780.91
2022-10-22T10:07:30.106Z,97786.56
2022-10-22T10:09:57.279Z,97786.03
2022-10-22T10:15:47.117Z,97792.88
2022-10-22T10:18:47.482Z,97790.00
2022-10-22T10:21:56.374Z,97780.44
2022-10-22T10:24:37.797Z,97789.59
2022-10-22T10:27:44.945Z,97786.69
2022-10-22T10:30:21.174Z,97782.25
2022-10-22T10:33:26.606Z,97801.00
2022-10-22T10:36:39.597Z,97792.38
2022-10-22T10:39:55.160Z,97801.16
2022-10-22T10:42:36.973Z,97799.00
2022-10-22T10:45:37.727Z,97797.09
2022-10-22T10:54:49.788Z,97804.53
2022-10-22T11:00:55.501Z,97802.88
2022-10-22T11:03:58.594Z,97801.44
2022-10-22T11:06:26.638Z,97794.97
2022-10-22T11:11:59.543Z,97789.19
2022-10-22T11:15:18.314Z,97778.72
2022-10-22T11:17:48.131Z,97789.91
2022-10-22T11:27:04.694Z,97784.84
2022-10-22T11:29:39.221Z,97787.72
2022-10-22T11:32:10.870Z,97788.09
2022-10-22T11:34:54.615Z,97788.47
2022-10-22T11:37:24.129Z,97788.84
2022-10-22T11:40:05.481Z,97787.41
2022-10-22T11:42:37.254Z,97781.25
2022-10-22T11:45:28.729Z,97777.56
2022-10-22T11:48:19.351Z,97777.78
2022-10-22T11:51:04.067Z,97765.38
2022-10-22T11:53:39.134Z,97767.44
2022-10-22T11:56:37.264Z,97757.00
2022-10-22T11:59:08.010Z,97754.09
2022-10-22T12:01:42.765Z,97754.72
2022-10-22T12:04:22.015Z,97752.66
2022-10-22T12:07:31.723Z,97764.22
2022-10-22T12:09:58.814Z,97761.22
2022-10-22T12:12:25.638Z,97760.50
2022-10-22T12:14:57.990Z,97759.69
2022-10-22T12:17:25.199Z,97761.81
2022-10-22T12:20:02.479Z,97756.19
2022-10-22T12:22:32.248Z,97745.97
2022-10-22T12:25:09.917Z,97754.38
2022-10-22T12:27:39.492Z,97755.69
2022-10-22T12:30:24.322Z,97757.75
2022-10-22T12:32:57.495Z,97758.34
2022-10-22T12:35:26.697Z,97754.88
2022-10-22T12:38:13.129Z,97753.44
2022-10-22T12:40:45.774Z,97756.28
2022-10-22T12:43:17.479Z,97753.53
2022-10-22T12:45:46.266Z,97758.34
2022-10-22T12:48:28.354Z,97750.53
2022-10-22T12:50:58.602Z,97738.78
2022-10-22T12:53:32.481Z,97742.88
2022-10-22T12:56:07.600Z,97740.19
2022-10-22T12:58:51.715Z,97736.56
2022-10-22T13:01:19.005Z,97733.94
2022-10-22T13:03:51.093Z,97731.16
2022-10-22T13:06:26.213Z,97727.16
2022-10-22T13:09:15.161Z,97716.56
2022-10-22T13:11:49.853Z,97725.84
2022-10-22T13:14:38.240Z,97721.72
2022-10-22T13:17:38.809Z,97724.50
2022-10-22T13:20:20.907Z,97729.78
2022-10-22T13:23:02.759Z,97730.41
2022-10-22T13:25:31.967Z,97730.75
2022-10-22T13:28:16.432Z,97733.72
2022-10-22T13:30:56.688Z,97739.50
2022-10-22T13:33:32.415Z,97733.00
2022-10-22T13:35:59.114Z,97740.59
2022-10-22T13:38:27.505Z,97740.72
2022-10-22T13:40:54.562Z,97742.97
2022-10-22T13:43:21.602Z,97754.13
2022-10-22T13:45:51.849Z,97748.03
2022-10-22T13:48:21.947Z,97752.94
2022-10-22T13:50:49.743Z,97750.16
2022-10-22T13:53:20.841Z,97750.47
2022-10-22T13:55:47.727Z,97749.84
2022-10-22T14:00:56.935Z,97756.47
2022-10-22T14:03:31.939Z,97754.91
2022-10-22T14:05:58.961Z,97753.34
2022-10-22T14:08:27.283Z,97756.50
2022-10-22T14:10:54.969Z,97756.91
2022-10-22T14:13:22.425Z,97754.50
2022-10-22T14:15:51.003Z,97749.31
2022-10-22T14:18:29.018Z,97753.72
2022-10-22T14:20:58.332Z,97760.25
2022-10-22T14:23:28.760Z,97765.38
2022-10-22T14:25:56.054Z,97774.59
2022-10-22T14:28:22.687Z,97769.13
2022-10-22T14:30:50.460Z,97772.09
2022-10-22T14:33:28.863Z,97770.28
2022-10-22T14:35:59.813Z,97781.75
2022-10-22T14:38:29.554Z,97787.13
2022-10-22T14:40:56.595Z,97781.47
2022-10-22T14:43:25.810Z,97783.50
2022-10-22T14:45:52.583Z,97783.06
2022-10-22T14:50:51.360Z,97776.28
2022-10-22T14:53:18.059Z,97787.25
2022-10-22T14:55:47.183Z,97783.44
2022-10-22T14:58:15.354Z,97783.31
2022-10-22T15:00:43.837Z,97780.00
2022-10-22T15:03:11.569Z,97776.31
2022-10-22T15:05:44.932Z,97784.63
2022-10-22T15:08:13.157Z,97773.00
2022-10-22T15:10:40.231Z,97785.19
2022-10-22T15:13:07.132Z,97782.81
2022-10-22T15:15:35.434Z,97786.53
2022-10-22T15:18:04.462Z,97785.28
2022-10-22T15:20:31.289Z,97790.09
2022-10-22T15:22:57.876Z,97793.38
2022-10-22T15:25:24.480Z,97800.34
2022-10-22T15:27:52.493Z,97799.41
2022-10-22T15:30:20.814Z,97800.13
2022-10-22T15:32:47.618Z,97809.75
2022-10-22T15:35:14.409Z,97807.97
2022-10-22T15:37:41.175Z,97819.53
2022-10-22T15:40:08.770Z,97807.66
2022-10-22T15:42:35.905Z,97808.47
2022-10-22T15:45:02.746Z,97807.16
2022-10-22T15:47:31.154Z,97807.16
2022-10-22T15:49:58.096Z,97811.72
2022-10-22T15:52:24.777Z,97812.34
2022-10-22T15:54:51.367Z,97819.81
2022-10-22T15:57:18.094Z,97816.66
2022-10-22T15:59:44.673Z,97830.72
2022-10-22T16:02:12.798Z,97841.16
2022-10-22T16:04:39.608Z,97845.63
2022-10-22T16:07:06.765Z,97853.22
2022-10-22T16:09:33.551Z,97847.84
2022-10-22T16:12:00.846Z,97860.72
2022-10-22T16:14:28.896Z,97870.97
2022-10-22T16:16:58.175Z,97872.63
2022-10-22T16:19:26.188Z,97875.75
2022-10-22T16:21:55.517Z,97875.75
2022-10-22T16:24:23.077Z,97882.00
2022-10-22T16:26:49.957Z,97877.69
2022-10-22T16:29:16.576Z,97885.16
2022-10-22T16:31:44.038Z,97884.19
2022-10-22T16:34:11.871Z,97884.78
2022-10-22T16:36:39.051Z,97895.13
2022-10-22T16:39:07.930Z,97894.88
2022-10-22T16:41:37.397Z,97899.69
2022-10-22T16:44:07.671Z,97902.09
2022-10-22T16:46:38.566Z,97904.72
2022-10-22T16:49:08.803Z,97907.50
2022-10-22T16:51:45.396Z,97912.78
2022-10-22T16:54:22.195Z,97911.25
2022-10-22T16:56:50.836Z,97915.94
2022-10-22T16:59:18.924Z,97913.63
2022-10-22T17:01:48.605Z,97921.56
2022-10-22T17:04:18.930Z,97924.31
2022-10-22T17:06:51.228Z,97925.50
2022-10-22T17:09:30.651Z,97923.38
2022-10-22T17:12:00.113Z,97933.56
2022-10-22T17:14:27.449Z,97928.50
2022-10-22T17:16:56.832Z,97931.16
2022-10-22T17:19:27.159Z,97934.50
2022-10-22T17:21:54.586Z,97932.84
2022-10-22T17:24:21.242Z,97932.13
2022-10-22T17:26:47.810Z,97942.59
2022-10-22T17:29:14.370Z,97935.13
2022-10-22T17:31:41.395Z,97940.97
2022-10-22T17:34:14.695Z,97956.50
2022-10-22T17:36:42.117Z,97945.09
2022-10-22T17:39:11.173Z,97939.66
2022-10-22T17:41:37.839Z,97939.56
2022-10-22T17:44:06.883Z,97950.38
2022-10-22T17:46:33.501Z,97945.88
2022-10-22T17:49:03.660Z,97947.59
2022-10-22T17:51:31.231Z,97951.41
2022-10-22T17:53:57.873Z,97954.53
2022-10-22T17:56:27.253Z,97956.16
2022-10-22T17:58:54.573Z,97956.50
2022-10-22T18:01:24.973Z,97972.13
2022-10-22T18:03:52.868Z,97969.56
2022-10-22T18:06:19.975Z,97972.75
2022-10-22T18:08:46.705Z,97975.13
2022-10-22T18:11:18.301Z,97981.00
2022-10-22T18:13:45.050Z,97967.41
2022-10-22T18:16:12.446Z,97973.31
2022-10-22T18:18:39.054Z,97970.84
2022-10-22T18:21:06.114Z,97970.44
2022-10-22T18:23:33.450Z,97974.16
2022-10-22T18:26:00.251Z,97972.38
2022-10-22T18:28:26.831Z,97973.41
2022-10-22T18:30:53.457Z,97984.81
2022-10-22T18:33:23.971Z,97978.75
2022-10-22T18:35:54.770Z,97978.94
2022-10-22T18:38:24.595Z,97981.91
2022-10-22T18:40:51.147Z,97982.13
2022-10-22T18:43:17.918Z,97980.16
2022-10-22T18:45:48.398Z,97976.75
2022-10-22T18:48:17.653Z,97980.38
2022-10-22T18:50:44.934Z,97986.03
2022-10-22T18:53:13.445Z,97982.72
2022-10-22T18:55:40.538Z,97980.75
2022-10-22T18:58:07.304Z,97982.94
2022-10-22T19:00:36.033Z,97979.53
2022-10-22T19:03:03.338Z,97981.06
2022-10-22T19:05:30.045Z,97984.66
2022-10-22T19:07:56.689Z,97981.97
2022-10-22T19:10:23.467Z,97980.66
2022-10-22T19:12:50.186Z,97972.41
2022-10-22T19:15:18.628Z,97984.94
2022-10-22T19:17:45.398Z,97982.28
2022-10-22T19:20:13.185Z,97981.78
2022-10-22T19:22:39.930Z,97979.09
2022-10-22T19:25:09.743Z,97982.69
2022-10-22T19:27:39.710Z,97984.22
2022-10-22T19:30:07.404Z,97985.63
2022-10-22T19:32:34.523Z,97986.47
2022-10-22T19:35:01.430Z,97992.84
2022-10-22T19:37:28.144Z,97990.06
2022-10-22T19:39:54.906Z,98002.59
2022-10-22T19:42:21.703Z,97996.41
2022-10-22T19:44:54.370Z,97994.38
2022-10-22T19:47:21.890Z,98000.66
2022-10-22T19:49:48.488Z,98002.06
2022-10-22T19:52:15.139Z,97996.53
2022-10-22T19:54:44.576Z,97998.59
2022-10-22T19:57:15.079Z,97998.59
2022-10-22T19:59:41.755Z,97995.81
2022-10-22T20:02:13.018Z,98005.50
2022-10-22T20:04:40.231Z,98005.50
2022-10-22T20:07:06.781Z,98017.94
2022-10-22T20:09:33.396Z,98011.66
2022-10-22T20:12:00.370Z,98012.28
2022-10-22T20:14:26.940Z,98017.13
2022-10-22T20:16:53.784Z,98016.31
2022-10-22T20:19:20.522Z,98021.16
2022-10-22T20:21:49.029Z,98020.44
2022-10-22T20:24:16.084Z,98018.25
2022-10-22T20:26:46.169Z,98025.16
2022-10-22T20:29:14.820Z,98028.56
2022-10-22T20:31:41.502Z,98034.72
2022-10-22T20:34:09.271Z,98027.13
2022-10-22T20:36:36.085Z,98041.63
2022-10-22T20:39:10.362Z,98031.94
2022-10-22T20:41:39.157Z,98025.69
2022-10-22T20:44:06.914Z,98025.06
2022-10-22T20:46:34.734Z,98029.38
2022-10-22T20:49:07.133Z,98026.00
2022-10-22T20:51:35.210Z,98031.72
2022-10-22T20:54:02.042Z,98034.00
2022-10-22T20:56:28.834Z,98030.56
2022-10-22T20:59:04.708Z,98023.06
2022-10-22T21:01:34.014Z,98023.78
2022-10-22T21:04:00.604Z,98027.28
2022-10-22T21:06:28.894Z,98032.22
2022-10-22T21:08:55.617Z,98027.38
2022-10-22T21:11:25.425Z,98022.53
2022-10-22T21:13:52.241Z,98026.75
2022-10-22T21:16:19.696Z,98019.13
2022-10-22T21:18:47.198Z,98019.13
2022-10-22T21:21:14.370Z,98018.41
2022-10-22T21:23:40.955Z,98028.81
2022-10-22T21:26:08.222Z,98027.38
2022-10-22T21:28:36.773Z,98025.94
2022-10-22T21:31:09.230Z,98029.34
2022-10-22T21:33:39.432Z,98026.56
2022-10-22T21:36:08.962Z,98025.03
2022-10-22T21:38:36.800Z,98025.75
2022-10-22T21:41:12.076Z,98012.47
2022-10-22T21:43:40.211Z,98015.88
2022-10-22T21:46:21.734Z,98008.16
2022-10-22T21:48:56.127Z,97997.06
2022-10-22T21:51:24.428Z,98007.34
2022-10-22T21:56:21.896Z,98006.53
2022-10-22T21:58:48.870Z,98007.88
2022-10-22T22:01:16.620Z,98021.03
2022-10-22T22:03:45.561Z,98016.13
2022-10-22T22:06:13.219Z,98017.47
2022-10-22T22:08:40.198Z,98016.00
2022-10-22T22:11:12.638Z,98015.28
2022-10-22T22:13:39.594Z,98020.13
2022-10-22T22:16:21.210Z,98023.53
2022-10-22T22:18:50.578Z,98019.94
2022-10-22T22:21:19.443Z,98024.06
2022-10-22T22:23:48.385Z,98020.53
2022-10-22T22:26:17.359Z,98020.44
2022-10-22T22:28:44.156Z,98025.88
2022-10-22T22:31:28.491Z,98029.28
2022-10-22T22:33:59.650Z,98030.53
2022-10-22T22:36:26.303Z,98031.16
2022-10-22T22:38:56.689Z,98033.81
2022-10-22T22:41:23.385Z,98022.00
2022-10-22T22:43:50.175Z,98022.59
2022-10-22T22:46:17.313Z,98019.09
2022-10-22T22:48:44.248Z,98015.63
2022-10-22T22:51:11.262Z,98012.75
2022-10-22T22:53:38.278Z,98010.56
2022-10-22T22:56:10.673Z,98007.81
2022-10-22T22:58:40.501Z,98007.81
2022-10-22T23:01:15.212Z,98007.72
2022-10-22T23:03:42.945Z,97998.66
2022-10-22T23:06:09.605Z,98010.50
2022-10-22T23:08:36.302Z,98009.75
2022-10-22T23:11:08.913Z,98002.78
2022-10-22T23:13:36.379Z,98002.06
2022-10-22T23:16:13.024Z,98006.19
2022-10-22T23:18:39.918Z,98013.16
2022-10-22T23:21:10.686Z,98009.56
2022-10-22T23:23:37.486Z,98013.78
2022-10-22T23:26:04.313Z,98007.53
2022-10-22T23:28:31.107Z,98000.50
2022-10-22T23:30:57.728Z,97990.03
2022-10-22T23:33:24.306Z,97994.97
2022-10-22T23:35:51.081Z,98000.44
2022-10-22T23:38:17.734Z,97998.97
2022-10-22T23:40:44.319Z,97998.88
2022-10-22T23:43:10.893Z,97992.63
2022-10-22T23:45:37.513Z,97993.34
2022-10-22T23:48:04.524Z,97992.50
2022-10-22T23:50:31.196Z,97993.84
2022-10-22T23:52:57.851Z,97998.78
2022-10-22T23:55:24.442Z,97998.06
2022-10-22T23:57:51.028Z,98002.91
